Time;durP1;ratioP1;P1;durP2;ratioP2;P2;SDS_P1;SDS_P2;PMS_P1;PMS_P2;Temp;Humidity;BMP_temperature;BMP_pressure;BME280_temperature;BME280_humidity;BME280_pressure;Samples;Min_cycle;Max_cycle;Signal;HPM_P1;HPM_P2
2023/07/11 00:00:44;;;;;;;1.42;1.42;;;;;;;13.83;100.00;100234.69;5036805;28;20064;-77
2023/07/11 00:03:10;;;;;;;1.88;1.77;;;;;;;13.83;100.00;100234.69;5036530;28;20021;-76
2023/07/11 00:05:36;;;;;;;2.25;2.08;;;;;;;13.80;100.00;100235.13;5036989;28;20471;-76
2023/07/11 00:08:02;;;;;;;1.38;1.38;;;;;;;13.83;100.00;100233.88;5020501;28;20025;-79
2023/07/11 00:10:28;;;;;;;1.38;1.38;;;;;;;13.83;100.00;100229.28;5053238;28;20554;-78
2023/07/11 00:12:54;;;;;;;1.42;1.42;;;;;;;13.84;100.00;100224.75;5020244;28;20524;-77
2023/07/11 00:15:19;;;;;;;2.10;1.95;;;;;;;13.73;100.00;100217.25;5036732;28;20123;-77
2023/07/11 00:17:48;;;;;;;1.38;1.38;;;;;;;13.77;100.00;100219.34;5052558;28;20039;-78
2023/07/11 00:20:14;;;;;;;1.50;1.40;;;;;;;13.74;100.00;100229.75;5035833;28;20039;-76
2023/07/11 00:22:42;;;;;;;1.30;1.20;;;;;;;13.72;100.00;100229.13;5036423;28;20039;-77
2023/07/11 00:25:08;;;;;;;1.13;1.13;;;;;;;13.69;100.00;100224.13;5020155;28;20029;-78
2023/07/11 00:27:33;;;;;;;1.55;1.45;;;;;;;13.63;100.00;100223.94;5036562;28;20045;-76
2023/07/11 00:29:59;;;;;;;1.38;1.38;;;;;;;13.63;100.00;100226.63;5052359;28;20115;-77
2023/07/11 00:32:25;;;;;;;1.23;1.23;;;;;;;13.54;100.00;100214.34;5036355;28;20387;-77
2023/07/11 00:34:50;;;;;;;2.15;2.05;;;;;;;13.52;100.00;100211.06;5052494;28;20471;-78
2023/07/11 00:37:16;;;;;;;1.55;1.45;;;;;;;13.53;100.00;100212.72;5019997;28;20533;-78
2023/07/11 00:39:45;;;;;;;1.33;1.33;;;;;;;13.52;100.00;100215.59;5053362;28;20593;-78
2023/07/11 00:42:10;;;;;;;1.33;1.25;;;;;;;13.33;100.00;100179.47;5020231;28;20057;-77
2023/07/11 00:44:49;;;;;;;1.85;1.75;;;;;;;13.51;100.00;100211.25;5036300;28;20137;-78
2023/07/11 00:47:15;;;;;;;1.65;1.55;;;;;;;13.48;100.00;100214.38;5036158;28;20032;-78
2023/07/11 00:49:44;;;;;;;1.35;1.35;;;;;;;13.37;100.00;100205.03;5052503;28;20040;-79
2023/07/11 00:52:10;;;;;;;1.60;1.50;;;;;;;13.33;100.00;100211.88;5035645;28;20033;-77
2023/07/11 00:54:36;;;;;;;1.52;1.52;;;;;;;13.38;100.00;100210.22;5052403;28;20135;-77
2023/07/11 00:57:07;;;;;;;1.70;1.60;;;;;;;13.36;100.00;100211.44;5052105;28;20021;-77
2023/07/11 00:59:33;;;;;;;1.63;1.52;;;;;;;13.34;100.00;100203.59;5052050;28;20471;-78
2023/07/11 01:02:17;;;;;;;1.42;1.42;;;;;;;13.35;100.00;100209.81;5036077;28;20043;-78
2023/07/11 01:04:43;;;;;;;1.83;1.75;;;;;;;13.31;100.00;100205.84;5036310;28;20028;-77
2023/07/11 01:07:15;;;;;;;1.40;1.40;;;;;;;13.31;100.00;100204.00;5020371;28;20087;-78
2023/07/11 01:09:40;;;;;;;2.05;1.95;;;;;;;13.25;100.00;100193.16;5018983;28;20041;-79
2023/07/11 01:12:12;;;;;;;1.27;1.27;;;;;;;13.25;100.00;100202.06;5035567;28;20059;-78
2023/07/11 01:14:40;;;;;;;1.77;1.75;;;;;;;13.09;100.00;100181.72;5051983;28;20228;-79
2023/07/11 01:17:22;;;;;;;1.67;1.63;;;;;;;13.15;100.00;100199.81;5052026;28;20529;-78
2023/07/11 01:19:48;;;;;;;2.23;2.13;;;;;;;13.12;100.00;100208.28;5051643;28;20033;-78
2023/07/11 01:22:14;;;;;;;2.47;2.30;;;;;;;13.12;100.00;100204.75;5035128;28;20029;-78
2023/07/11 01:24:39;;;;;;;1.95;1.85;;;;;;;13.10;100.00;100215.78;5035812;28;20101;-78
2023/07/11 01:27:06;;;;;;;1.42;1.40;;;;;;;13.02;100.00;100207.88;5035784;28;20383;-78
2023/07/11 01:29:32;;;;;;;1.60;1.50;;;;;;;12.94;100.00;100208.91;5037148;28;20475;-78
2023/07/11 01:31:58;;;;;;;1.63;1.58;;;;;;;12.86;100.00;100198.31;5039509;28;20195;-77
2023/07/11 01:34:25;;;;;;;1.48;1.48;;;;;;;12.82;100.00;100199.75;5039626;28;20029;-80
2023/07/11 01:36:54;;;;;;;1.77;1.67;;;;;;;12.82;100.00;100205.13;5022715;28;20029;-78
2023/07/11 01:39:20;;;;;;;2.17;2.08;;;;;;;12.79;100.00;100199.31;5039061;28;20104;-78
2023/07/11 01:41:46;;;;;;;2.30;2.05;;;;;;;12.83;100.00;100200.56;5022875;28;20036;-77
2023/07/11 01:44:13;;;;;;;2.55;2.40;;;;;;;12.83;100.00;100190.59;5055815;28;20033;-77
2023/07/11 01:46:39;;;;;;;2.72;2.63;;;;;;;12.77;100.00;100192.25;5022713;28;20048;-78
2023/07/11 01:49:04;;;;;;;1.90;1.85;;;;;;;12.80;100.00;100192.88;5039469;28;20074;-77
2023/07/11 01:51:33;;;;;;;1.70;1.67;;;;;;;12.88;100.00;100193.50;5056084;28;20464;-78
2023/07/11 01:53:59;;;;;;;1.85;1.80;;;;;;;12.89;100.00;100192.50;5039284;28;20045;-77
2023/07/11 01:56:24;;;;;;;1.63;1.63;;;;;;;13.02;100.00;100196.22;5039382;28;20087;-79
2023/07/11 01:58:52;;;;;;;1.65;1.65;;;;;;;13.00;100.00;100182.97;5038895;28;20078;-77
2023/07/11 02:01:18;;;;;;;1.63;1.60;;;;;;;12.93;100.00;100179.41;5055778;28;20072;-78
2023/07/11 02:03:44;;;;;;;2.35;2.25;;;;;;;12.82;100.00;100188.13;5038826;28;20053;-79
2023/07/11 02:06:09;;;;;;;2.42;2.22;;;;;;;12.70;100.00;100188.72;5055141;28;20479;-78
2023/07/11 02:08:35;;;;;;;1.90;1.85;;;;;;;12.64;100.00;100186.81;5038664;28;20036;-78
2023/07/11 02:11:00;;;;;;;2.05;1.95;;;;;;;12.63;100.00;100182.47;5038792;28;20025;-78
2023/07/11 02:13:26;;;;;;;2.90;2.30;;;;;;;12.59;100.00;100183.06;5055534;28;20433;-78
2023/07/11 02:15:55;;;;;;;2.03;1.95;;;;;;;12.43;100.00;100168.09;5022248;28;20442;-77
2023/07/11 02:18:20;;;;;;;2.60;2.50;;;;;;;12.40;100.00;100179.28;5038662;28;20036;-78
2023/07/11 02:20:49;;;;;;;2.50;2.30;;;;;;;12.28;100.00;100182.56;5055647;28;20029;-78
2023/07/11 02:23:15;;;;;;;3.20;3.03;;;;;;;12.18;100.00;100182.09;5055039;28;20082;-79
2023/07/11 02:25:43;;;;;;;4.45;3.65;;;;;;;12.08;100.00;100187.03;5038267;28;20044;-79
2023/07/11 02:28:10;;;;;;;3.70;3.50;;;;;;;12.08;100.00;100182.47;5038584;28;20037;-79
2023/07/11 02:30:35;;;;;;;4.03;3.83;;;;;;;12.04;100.00;100180.34;5022246;28;20537;-77
2023/07/11 02:33:01;;;;;;;4.43;4.22;;;;;;;11.93;100.00;100170.97;5021752;28;20037;-77
2023/07/11 02:35:29;;;;;;;4.97;4.70;;;;;;;11.80;100.00;100171.72;5022219;28;20033;-79
2023/07/11 02:37:55;;;;;;;4.97;4.70;;;;;;;11.65;100.00;100165.63;5038755;28;20040;-78
2023/07/11 02:40:21;;;;;;;4.38;4.18;;;;;;;11.45;100.00;100166.28;5037886;28;20029;-78
2023/07/11 02:42:46;;;;;;;5.55;5.25;;;;;;;11.32;100.00;100165.38;5037785;28;20033;-77
2023/07/11 02:45:14;;;;;;;5.53;5.18;;;;;;;11.24;100.00;100169.03;5021975;28;20033;-79
2023/07/11 02:47:43;;;;;;;5.82;5.53;;;;;;;11.21;100.00;100162.19;5021825;28;20041;-78
2023/07/11 02:50:15;;;;;;;6.38;6.07;;;;;;;11.22;100.00;100165.72;5038706;28;20029;-78
2023/07/11 02:52:40;;;;;;;5.90;5.60;;;;;;;11.20;100.00;100163.22;5021833;28;20476;-79
2023/07/11 02:55:07;;;;;;;6.60;6.18;;;;;;;11.15;100.00;100164.81;5038233;28;20166;-78
2023/07/11 02:57:32;;;;;;;6.15;5.85;;;;;;;11.12;100.00;100166.03;5054392;28;20025;-78
2023/07/11 03:00:01;;;;;;;5.95;5.68;;;;;;;11.12;100.00;100157.16;5038162;28;20032;-78
2023/07/11 03:02:30;;;;;;;7.00;6.63;;;;;;;11.07;100.00;100167.66;5053921;28;20040;-78
2023/07/11 03:04:55;;;;;;;6.63;6.28;;;;;;;11.11;100.00;100166.22;5021660;28;20029;-79
2023/07/11 03:07:21;;;;;;;6.82;6.50;;;;;;;10.96;100.00;100156.38;5037350;28;20083;-77
2023/07/11 03:09:49;;;;;;;8.23;7.80;;;;;;;10.97;100.00;100168.81;5037651;28;20395;-76
2023/07/11 03:12:14;;;;;;;7.60;7.22;;;;;;;10.98;100.00;100159.72;5037701;28;20033;-76
2023/07/11 03:14:40;;;;;;;8.20;7.78;;;;;;;10.94;100.00;100155.75;5037751;28;20029;-77
2023/07/11 03:17:09;;;;;;;7.00;6.65;;;;;;;10.95;100.00;100165.47;5021153;28;20384;-78
2023/07/11 03:19:35;;;;;;;8.98;8.50;;;;;;;10.74;100.00;100149.34;5021508;28;20120;-77
2023/07/11 03:22:00;;;;;;;8.90;8.45;;;;;;;10.72;100.00;100159.47;5021295;28;20175;-77
2023/07/11 03:24:26;;;;;;;8.48;8.02;;;;;;;10.59;100.00;100162.84;5037821;28;20037;-78
2023/07/11 03:26:52;;;;;;;10.25;9.73;;;;;;;10.44;100.00;100165.56;5037566;28;20090;-77
2023/07/11 03:29:17;;;;;;;12.35;11.60;;;;;;;10.30;100.00;100153.84;5037468;28;20403;-77
2023/07/11 03:31:43;;;;;;;11.85;11.23;;;;;;;10.21;100.00;100164.84;5053755;28;20033;-78
2023/07/11 03:34:10;;;;;;;11.35;10.73;;;;;;;10.13;100.00;100158.56;5021249;28;20033;-78
2023/07/11 03:36:36;;;;;;;11.57;10.95;;;;;;;10.06;100.00;100167.56;5020292;28;20060;-77
2023/07/11 03:39:03;;;;;;;11.88;11.23;;;;;;;9.90;100.00;100169.44;5021064;28;20497;-76
2023/07/11 03:41:32;;;;;;;12.85;12.20;;;;;;;9.81;100.00;100164.31;5020791;28;20037;-79
2023/07/11 03:43:59;;;;;;;10.80;10.25;;;;;;;9.53;100.00;100137.31;5021219;28;20402;-79
2023/07/11 03:46:26;;;;;;;10.50;9.93;;;;;;;9.52;100.00;100147.19;5037033;28;20123;-79
2023/07/11 03:48:59;;;;;;;13.70;12.93;;;;;;;9.61;100.00;100162.19;5020226;28;20029;-77
2023/07/11 03:51:31;;;;;;;18.85;17.60;;;;;;;9.69;100.00;100170.16;5036348;28;20040;-77
2023/07/11 03:54:00;;;;;;;22.75;21.30;;;;;;;9.75;100.00;100167.75;5037209;28;20083;-77
2023/07/11 03:56:27;;;;;;;16.95;16.05;;;;;;;9.85;100.00;100179.06;5020617;28;20029;-78
2023/07/11 03:58:59;;;;;;;14.60;13.75;;;;;;;10.07;100.00;100172.72;5020138;28;20079;-77
2023/07/11 04:01:31;;;;;;;13.75;13.00;;;;;;;10.34;100.00;100167.72;5022496;28;20036;-79
2023/07/11 04:03:58;;;;;;;8.50;7.97;;;;;;;10.34;100.00;100165.03;5020070;28;20407;-78
2023/07/11 04:06:24;;;;;;;9.05;8.50;;;;;;;10.22;100.00;100151.22;5036520;28;20100;-79
2023/07/11 04:08:50;;;;;;;8.50;8.07;;;;;;;10.11;100.00;100147.19;5036473;28;20079;-78
2023/07/11 04:11:17;;;;;;;10.43;9.90;;;;;;;9.99;100.00;100161.25;5019937;28;20033;-79
2023/07/11 04:13:46;;;;;;;14.70;13.85;;;;;;;9.62;100.00;100122.75;5019760;28;20036;-78
2023/07/11 04:16:16;;;;;;;13.57;12.85;;;;;;;9.45;100.00;100114.91;5037056;28;20032;-77
2023/07/11 04:18:42;;;;;;;11.10;10.43;;;;;;;9.61;100.00;100138.03;5019713;28;20138;-77
2023/07/11 04:21:09;;;;;;;12.48;11.77;;;;;;;9.40;100.00;100103.06;5036148;28;20056;-79
2023/07/11 04:23:38;;;;;;;16.65;15.65;;;;;;;9.76;100.00;100161.34;5052724;28;20035;-77
2023/07/11 04:26:13;;;;;;;15.02;14.13;;;;;;;9.63;100.00;100149.44;5053286;28;20029;-77
2023/07/11 04:28:39;;;;;;;13.80;13.02;;;;;;;9.51;100.00;100145.53;5020611;28;20045;-77
2023/07/11 04:31:08;;;;;;;14.85;13.85;;;;;;;9.42;100.00;100141.25;5019550;28;20040;-76
2023/07/11 04:33:39;;;;;;;15.40;14.55;;;;;;;9.61;100.00;100167.56;5052354;28;20025;-79
2023/07/11 04:36:13;;;;;;;14.10;13.35;;;;;;;9.65;100.00;100152.75;5052553;28;20033;-78
2023/07/11 04:38:42;;;;;;;12.10;11.45;;;;;;;10.06;100.00;100181.00;5019850;28;20033;-79
2023/07/11 04:41:09;;;;;;;12.57;11.90;;;;;;;10.10;100.00;100137.44;5019963;28;20086;-79
2023/07/11 04:43:36;;;;;;;7.40;7.05;;;;;;;10.63;100.00;100185.63;5036169;28;20091;-79
2023/07/11 04:46:04;;;;;;;7.47;6.97;;;;;;;10.84;100.00;100183.97;5052138;28;20051;-78
2023/07/11 04:48:32;;;;;;;5.60;5.35;;;;;;;10.94;100.00;100163.81;5035782;28;20098;-76
2023/07/11 04:51:00;;;;;;;6.50;6.07;;;;;;;10.99;100.00;100147.94;5019289;28;20036;-77
2023/07/11 04:53:30;;;;;;;6.55;6.18;;;;;;;10.94;100.00;100136.09;5020112;28;20045;-78
2023/07/11 04:56:04;;;;;;;4.30;4.03;;;;;;;11.37;100.00;100179.91;5035947;28;20029;-79
2023/07/11 04:58:31;;;;;;;3.70;3.45;;;;;;;11.40;100.00;100174.13;5019326;28;20033;-78
2023/07/11 05:01:08;;;;;;;2.55;2.45;;;;;;;11.53;100.00;100177.94;5019189;28;20459;-78
2023/07/11 05:03:44;;;;;;;2.85;2.70;;;;;;;11.60;100.00;100178.84;5051802;28;20044;-77
2023/07/11 05:06:37;;;;;;;3.22;3.03;;;;;;;11.67;100.00;100177.03;5021635;28;20435;-79
2023/07/11 05:09:18;;;;;;;1.52;1.42;;;;;;;11.63;100.00;100179.25;5036992;28;20116;-79
2023/07/11 05:11:45;;;;;;;1.98;1.88;;;;;;;11.63;100.00;100178.44;5018186;28;20029;-79
2023/07/11 05:14:10;;;;;;;1.98;1.88;;;;;;;11.54;100.00;100168.88;5035859;28;20091;-79
2023/07/11 05:16:39;;;;;;;2.05;1.95;;;;;;;11.62;100.00;100182.16;5035543;28;20071;-78
2023/07/11 05:19:11;;;;;;;1.70;1.65;;;;;;;11.59;100.00;100172.63;5035719;28;20479;-79
2023/07/11 05:21:38;;;;;;;3.10;2.85;;;;;;;11.76;100.00;100178.53;5019758;28;20179;-78
2023/07/11 05:24:09;;;;;;;2.38;2.28;;;;;;;11.86;100.00;100176.34;5019375;28;20111;-77
2023/07/11 05:26:36;;;;;;;2.65;2.47;;;;;;;12.06;100.00;100181.81;5019193;28;20032;-79
2023/07/11 05:29:04;;;;;;;2.25;2.15;;;;;;;12.13;100.00;100178.34;5052309;28;20033;-78
2023/07/11 05:31:29;;;;;;;1.80;1.70;;;;;;;12.23;100.00;100186.91;5019307;28;20045;-79
2023/07/11 05:33:55;;;;;;;1.35;1.33;;;;;;;12.30;100.00;100196.69;5035228;28;20037;-77
2023/07/11 05:36:33;;;;;;;2.63;1.85;;;;;;;12.37;100.00;100194.00;5018337;28;20065;-78
2023/07/11 05:39:02;;;;;;;1.20;1.20;;;;;;;12.41;100.00;100183.63;5036877;28;20033;-78
2023/07/11 05:41:28;;;;;;;1.27;1.25;;;;;;;12.40;100.00;100179.28;5019152;28;20037;-77
2023/07/11 05:43:55;;;;;;;0.98;0.98;;;;;;;12.43;100.00;100177.00;5051662;28;20036;-79
2023/07/11 05:46:23;;;;;;;1.85;1.75;;;;;;;12.51;100.00;100193.00;5018312;28;20079;-77
2023/07/11 05:48:54;;;;;;;1.15;1.05;;;;;;;12.56;100.00;100189.69;5035149;28;20541;-78
2023/07/11 05:51:23;;;;;;;0.90;0.88;;;;;;;12.52;100.00;100186.59;5019076;28;20510;-77
2023/07/11 05:53:50;;;;;;;2.22;1.10;;;;;;;12.56;100.00;100176.22;5035454;28;20079;-79
2023/07/11 05:56:17;;;;;;;1.25;1.15;;;;;;;12.72;100.00;100202.00;5034853;28;20029;-78
2023/07/11 05:58:43;;;;;;;1.58;0.95;;;;;;;12.70;100.00;100183.34;5018942;28;20025;-78
2023/07/11 06:01:15;;;;;;;1.38;0.95;;;;;;;12.87;100.00;100193.72;5035008;28;20086;-77
2023/07/11 06:03:46;;;;;;;3.38;1.35;;;;;;;12.88;100.00;100198.91;5034619;28;20094;-78
2023/07/11 06:06:14;;;;;;;0.90;0.82;;;;;;;12.98;100.00;100191.25;5051498;28;20033;-78
2023/07/11 06:08:43;;;;;;;0.75;0.60;;;;;;;13.15;100.00;100201.66;5018798;28;20045;-79
2023/07/11 06:11:09;;;;;;;0.80;0.77;;;;;;;13.27;100.00;100208.13;5018848;28;20029;-77
2023/07/11 06:13:39;;;;;;;0.68;0.68;;;;;;;13.35;100.00;100202.53;5050945;28;20124;-78
2023/07/11 06:16:12;;;;;;;1.58;1.13;;;;;;;13.46;100.00;100211.06;5051853;28;20368;-78
2023/07/11 06:18:38;;;;;;;;;;;;;;;13.51;100.00;100211.25;5022609;28;20031;-78
2023/07/11 06:21:05;;;;;;;1.65;1.27;;;;;;;13.47;100.00;100213.56;5055459;28;19999;-77
2023/07/11 06:23:31;;;;;;;2.20;1.30;;;;;;;13.45;100.00;100223.72;5055252;28;20509;-77
2023/07/11 06:26:04;;;;;;;2.05;1.25;;;;;;;13.43;100.00;100222.28;5054887;28;20029;-79
2023/07/11 06:28:37;;;;;;;1.90;0.90;;;;;;;13.39;100.00;100227.28;5039032;28;20083;-79
2023/07/11 06:31:06;;;;;;;2.72;1.08;;;;;;;13.28;100.00;100217.88;5038017;28;20044;-79
2023/07/11 06:33:32;;;;;;;1.40;0.82;;;;;;;13.27;100.00;100226.22;5038327;28;20060;-79
2023/07/11 06:36:02;;;;;;;1.52;1.00;;;;;;;13.22;100.00;100228.66;5037773;28;20069;-78
2023/07/11 06:38:29;;;;;;;2.75;1.00;;;;;;;13.74;100.00;100221.63;5054491;28;20040;-78
2023/07/11 06:40:56;;;;;;;0.57;0.50;;;;;;;14.16;100.00;100230.28;5038474;28;20061;-77
2023/07/11 06:43:25;;;;;;;1.08;0.70;;;;;;;14.26;100.00;100236.06;5021499;28;20025;-78
2023/07/11 06:45:55;;;;;;;0.90;0.68;;;;;;;15.18;100.00;100231.28;5021568;28;20478;-78
2023/07/11 06:48:29;;;;;;;0.60;0.60;;;;;;;15.43;100.00;100241.28;5054753;28;20437;-78
2023/07/11 06:51:10;;;;;;;1.73;0.77;;;;;;;17.51;100.00;100237.59;5022728;28;20060;-78
2023/07/11 06:53:41;;;;;;;1.58;0.82;;;;;;;18.94;100.00;100242.66;5022344;28;20040;-78
2023/07/11 06:56:09;;;;;;;2.65;1.05;;;;;;;20.28;100.00;100238.31;5037678;28;20472;-77
2023/07/11 06:58:34;;;;;;;2.65;0.95;;;;;;;20.60;100.00;100227.53;5021060;28;20044;-77
2023/07/11 07:01:02;;;;;;;2.15;1.00;;;;;;;21.33;100.00;100227.19;5037454;28;20068;-77
2023/07/11 07:03:29;;;;;;;3.28;1.13;;;;;;;22.34;100.00;100239.16;5054260;28;20463;-78
2023/07/11 07:06:19;;;;;;;2.05;0.95;;;;;;;22.86;99.81;100237.44;5053748;28;20391;-78
2023/07/11 07:08:45;;;;;;;1.15;0.50;;;;;;;21.91;100.00;100233.69;5049333;28;20052;-79
2023/07/11 07:11:10;;;;;;;1.05;0.70;;;;;;;22.10;100.00;100236.00;5020968;28;20395;-78
2023/07/11 07:13:36;;;;;;;0.60;0.60;;;;;;;22.35;100.00;100246.28;5037266;28;20037;-78
2023/07/11 07:16:02;;;;;;;0.35;0.30;;;;;;;21.27;100.00;100241.88;5053903;28;20025;-77
2023/07/11 07:18:32;;;;;;;0.77;0.52;;;;;;;19.63;100.00;100242.50;5053752;28;20036;-77
2023/07/11 07:20:58;;;;;;;1.95;1.33;;;;;;;18.36;100.00;100241.75;5053993;28;20037;-77
2023/07/11 07:23:25;;;;;;;0.43;0.30;;;;;;;17.20;100.00;100238.75;5053444;28;20459;-78
2023/07/11 07:25:57;;;;;;;0.43;0.38;;;;;;;17.17;100.00;100249.22;5053906;28;20471;-77
2023/07/11 07:28:23;;;;;;;0.30;0.30;;;;;;;16.40;100.00;100239.75;5020994;28;20426;-78
2023/07/11 07:30:52;;;;;;;1.40;0.70;;;;;;;17.83;100.00;100245.47;5036611;28;20032;-76
2023/07/11 07:33:20;;;;;;;1.33;0.75;;;;;;;18.20;100.00;100247.94;5020631;28;20048;-78
2023/07/11 07:35:46;;;;;;;1.92;0.73;;;;;;;20.48;100.00;100248.69;5020367;28;20031;-77
2023/07/11 07:38:17;;;;;;;0.57;0.52;;;;;;;21.69;100.00;100243.94;5037268;28;20024;-77
2023/07/11 07:40:43;;;;;;;0.30;0.30;;;;;;;21.93;100.00;100244.38;5021320;28;20027;-77
2023/07/11 07:43:08;;;;;;;0.90;0.90;;;;;;;22.60;100.00;100245.59;5020864;28;20124;-78
2023/07/11 07:45:34;;;;;;;1.63;0.93;;;;;;;23.86;99.74;100253.47;5037010;28;20585;-78
2023/07/11 07:47:59;;;;;;;0.70;0.70;;;;;;;25.13;98.06;100240.34;5053467;28;20092;-81
2023/07/11 07:50:28;;;;;;;2.40;1.05;;;;;;;26.31;91.57;100251.19;5020792;28;20033;-82
2023/07/11 07:52:53;;;;;;;1.65;1.20;;;;;;;26.94;86.96;100252.91;5053303;28;20025;-82
2023/07/11 07:55:19;;;;;;;3.13;1.27;;;;;;;24.36;97.75;100247.03;5036636;28;20087;-81
2023/07/11 07:57:45;;;;;;;2.53;1.40;;;;;;;24.41;100.00;100251.69;5020414;28;20017;-81
2023/07/11 08:00:11;;;;;;;1.90;1.13;;;;;;;23.55;100.00;100252.63;5036357;28;20048;-81
2023/07/11 08:02:39;;;;;;;2.72;1.45;;;;;;;24.64;99.40;100238.47;5053036;28;20036;-82
2023/07/11 08:05:05;;;;;;;2.55;1.58;;;;;;;26.21;93.80;100251.31;5020451;28;20387;-82
2023/07/11 08:07:31;;;;;;;2.67;2.13;;;;;;;23.86;97.82;100247.97;5020378;28;20037;-82
2023/07/11 08:09:58;;;;;;;1.85;1.10;;;;;;;21.71;100.00;100239.03;5053081;28;20043;-81
2023/07/11 08:12:24;;;;;;;2.88;1.55;;;;;;;20.11;100.00;100229.31;5052800;28;20037;-82
2023/07/11 08:14:49;;;;;;;1.65;1.05;;;;;;;19.08;100.00;100251.38;5019737;28;20093;-81
2023/07/11 08:17:15;;;;;;;2.75;1.65;;;;;;;18.20;100.00;100247.94;5036721;28;20032;-81
2023/07/11 08:19:41;;;;;;;3.58;1.73;;;;;;;17.66;100.00;100249.94;5019453;28;20463;-82
2023/07/11 08:22:09;;;;;;;4.10;1.60;;;;;;;17.14;100.00;100239.66;5020236;28;20044;-80
2023/07/11 08:24:35;;;;;;;2.70;1.77;;;;;;;16.86;100.00;100257.38;5019447;28;20055;-81
2023/07/11 08:27:04;;;;;;;3.55;1.52;;;;;;;16.42;100.00;100240.34;5019897;28;20399;-80
2023/07/11 08:29:37;;;;;;;3.40;1.55;;;;;;;16.12;100.00;100229.44;5035885;28;20037;-80
2023/07/11 08:32:04;;;;;;;4.05;1.77;;;;;;;18.42;100.00;100239.97;5051419;28;20060;-80
2023/07/11 08:34:35;;;;;;;4.22;2.40;;;;;;;21.93;100.00;100247.91;5035304;28;20087;-81
2023/07/11 08:37:00;;;;;;;2.63;1.60;;;;;;;24.27;100.00;100250.66;5019866;28;20067;-81
2023/07/11 08:39:26;;;;;;;2.58;2.00;;;;;;;25.78;90.72;100251.16;5051446;28;20025;-81
2023/07/11 08:41:53;;;;;;;3.53;1.90;;;;;;;26.71;88.17;100254.59;5053431;28;20029;-81
2023/07/11 08:44:43;;;;;;;2.70;1.77;;;;;;;26.98;77.92;100251.19;5019897;28;20033;-81
2023/07/11 08:47:17;;;;;;;2.20;1.63;;;;;;;27.30;83.64;100244.13;5019737;28;20475;-82
2023/07/11 08:49:50;;;;;;;5.43;1.88;;;;;;;28.23;82.73;100256.03;5019509;28;20136;-82
2023/07/11 08:52:19;;;;;;;4.63;1.90;;;;;;;29.13;82.38;100258.34;5018035;28;20471;-81
2023/07/11 08:55:32;;;;;;;2.90;1.48;;;;;;;29.94;80.31;100254.72;5034816;28;20116;-82
2023/07/11 08:58:18;;;;;;;2.05;1.38;;;;;;;30.68;74.00;100254.84;5035922;28;20471;-81
2023/07/11 09:00:46;;;;;;;7.22;6.85;;;;;;;29.49;77.16;100247.22;5019742;28;20033;-81
2023/07/11 09:03:47;;;;;;;2.42;1.40;;;;;;;28.47;81.02;100249.50;5052186;28;20543;-79
2023/07/11 09:06:19;;;;;;;2.25;1.30;;;;;;;26.04;94.96;100244.31;5035939;28;20060;-79
2023/07/11 09:08:46;;;;;;;2.85;1.20;;;;;;;24.33;98.91;100246.78;5052124;28;20036;-78
2023/07/11 09:11:38;;;;;;;1.98;1.35;;;;;;;22.83;100.00;100247.84;5035563;28;20064;-79
2023/07/11 09:14:18;;;;;;;2.50;1.45;;;;;;;21.48;100.00;100251.13;5025211;28;20488;-79
2023/07/11 09:16:53;;;;;;;4.25;1.30;;;;;;;20.49;100.00;100255.78;5035574;28;20515;-79
2023/07/11 09:19:31;;;;;;;3.88;1.35;;;;;;;19.92;100.00;100254.16;5052331;28;20102;-79
2023/07/11 09:22:10;;;;;;;2.15;1.20;;;;;;;19.45;100.00;100202.69;5035531;28;20036;-79
2023/07/11 09:24:48;;;;;;;1.83;1.30;;;;;;;20.06;100.00;100251.94;5019177;28;20036;-79
2023/07/11 09:27:20;;;;;;;8.23;7.82;;;;;;;23.86;100.00;100253.47;5019355;28;20071;-80
2023/07/11 09:29:48;;;;;;;5.13;4.70;;;;;;;26.48;88.21;100262.56;5052682;28;20055;-81
2023/07/11 09:32:19;;;;;;;4.70;2.95;;;;;;;27.44;76.66;100264.31;5034928;28;20040;-82
2023/07/11 09:34:49;;;;;;;21.40;17.27;;;;;;;24.74;83.66;100243.88;5019527;28;20058;-81
2023/07/11 09:37:24;;;;;;;6.72;1.95;;;;;;;25.85;83.40;100232.38;5051682;28;20047;-80
2023/07/11 09:40:05;;;;;;;3.03;2.05;;;;;;;27.45;74.94;100257.69;5051710;28;20403;-80
2023/07/11 09:42:51;;;;;;;39.45;37.70;;;;;;;29.08;59.68;100259.28;5052194;28;20082;-81
2023/07/11 09:45:24;;;;;;;4.10;3.80;;;;;;;30.36;60.57;100253.28;5035368;28;20032;-81
2023/07/11 09:48:04;;;;;;;1.88;1.48;;;;;;;31.24;49.39;100263.41;5051804;28;20033;-80
2023/07/11 09:50:47;;;;;;;4.28;1.65;;;;;;;31.98;48.79;100261.56;5020668;28;20052;-79
2023/07/11 09:53:17;;;;;;;2.88;1.40;;;;;;;31.86;40.98;100259.47;5039572;28;20071;-80
2023/07/11 09:55:43;;;;;;;2.03;1.30;;;;;;;31.95;37.42;100245.56;5022750;28;20032;-79
2023/07/11 09:58:16;;;;;;;3.42;1.17;;;;;;;29.52;38.47;100254.09;5022937;28;20131;-79
2023/07/11 10:00:54;;;;;;;6.25;5.85;;;;;;;27.49;39.79;100246.84;5055472;28;20032;-79
2023/07/11 10:03:25;;;;;;;3.03;2.78;;;;;;;25.61;45.05;100257.09;5022960;28;20043;-80
2023/07/11 10:05:52;;;;;;;2.47;1.10;;;;;;;24.00;49.61;100257.31;5055143;28;20067;-79
2023/07/11 10:08:23;;;;;;;2.45;1.33;;;;;;;22.89;51.50;100245.09;5039151;28;20032;-78
2023/07/11 10:10:54;;;;;;;2.03;1.15;;;;;;;23.69;50.77;100234.53;5022649;28;20033;-78
2023/07/11 10:13:21;;;;;;;54.15;51.55;;;;;;;25.54;45.09;100237.34;5022140;28;20503;-78
2023/07/11 10:15:54;;;;;;;325.98;173.45;;;;;;;27.04;40.13;100247.22;5022600;28;20039;-78
2023/07/11 10:18:22;;;;;;;9.98;9.48;;;;;;;24.43;46.58;100249.50;5021902;28;20036;-78
2023/07/11 10:20:54;;;;;;;1.90;1.58;;;;;;;25.51;46.76;100208.47;5022335;28;20028;-81
2023/07/11 10:23:24;;;;;;;3.65;1.90;;;;;;;27.86;41.92;100245.13;5055399;28;20467;-79
2023/07/11 10:26:09;;;;;;;3.00;1.70;;;;;;;29.82;38.28;100243.38;5022898;28;20034;-78
2023/07/11 10:28:38;;;;;;;2.45;1.58;;;;;;;27.90;40.00;100247.00;5055190;28;20075;-78
2023/07/11 10:31:26;;;;;;;3.53;1.35;;;;;;;25.81;46.16;100242.31;5055394;28;20032;-78
2023/07/11 10:33:57;;;;;;;25.10;23.98;;;;;;;28.08;37.45;100241.69;5055089;28;20113;-78
2023/07/11 10:36:30;;;;;;;4.20;2.78;;;;;;;25.83;38.92;100231.84;5022163;28;20091;-80
2023/07/11 10:38:59;;;;;;;2.08;1.38;;;;;;;24.54;43.03;100231.06;5054479;28;20025;-79
2023/07/11 10:41:39;;;;;;;115.35;106.38;;;;;;;24.35;43.82;100250.91;5022072;28;20025;-78
2023/07/11 10:44:11;;;;;;;3.40;3.17;;;;;;;25.75;42.90;100235.19;5021995;28;20036;-78
2023/07/11 10:46:41;;;;;;;1.85;1.30;;;;;;;27.89;38.96;100227.94;5022036;28;20051;-78
2023/07/11 10:49:15;;;;;;;11.77;11.10;;;;;;;29.38;34.64;100239.50;5022350;28;20040;-78
2023/07/11 10:52:19;;;;;;;2.63;1.38;;;;;;;29.62;36.35;100245.53;5022166;28;20043;-78
2023/07/11 10:55:15;;;;;;;77.82;71.20;;;;;;;29.52;33.40;100254.91;5054564;28;20476;-78
2023/07/11 10:57:52;;;;;;;1.80;1.33;;;;;;;29.51;34.40;100246.94;5021798;28;20033;-80
2023/07/11 11:00:50;;;;;;;49.85;46.33;;;;;;;29.71;34.09;100249.19;5054331;28;20124;-81
2023/07/11 11:03:34;;;;;;;11.43;10.82;;;;;;;29.84;33.07;100246.66;5052195;28;20123;-79
2023/07/11 11:06:43;;;;;;;1.70;1.40;;;;;;;29.92;32.30;100249.47;5037991;28;20396;-78
2023/07/11 11:09:11;;;;;;;2.60;1.45;;;;;;;30.03;32.44;100255.56;5054296;28;20077;-78
2023/07/11 11:11:59;;;;;;;2.45;1.20;;;;;;;30.53;32.59;100248.94;5053829;28;20499;-79
2023/07/11 11:14:52;;;;;;;11.32;10.60;;;;;;;30.88;31.76;100247.91;5021245;28;20044;-79
2023/07/11 11:17:36;;;;;;;1.70;1.00;;;;;;;30.00;30.60;100245.09;5070882;28;20037;-79
2023/07/11 11:20:21;;;;;;;3.35;1.17;;;;;;;30.81;29.71;100243.97;5053911;28;20028;-79
2023/07/11 11:23:05;;;;;;;3.13;1.55;;;;;;;31.11;29.86;100244.97;5053925;28;20029;-79
2023/07/11 11:25:42;;;;;;;3.60;1.90;;;;;;;31.17;29.91;100240.06;5037644;28;20531;-79
2023/07/11 11:28:28;;;;;;;3.22;1.48;;;;;;;29.55;32.79;100232.09;5054317;28;20086;-79
2023/07/11 11:31:01;;;;;;;2.65;1.65;;;;;;;27.89;37.19;100239.84;5037239;28;20032;-79